sensor_id;sensor_type;location;lat;lon;timestamp;P1;durP1;ratioP1;P2;durP2;ratioP2
6955;SDS011;50345;51.136;16.886;2023-09-19T00:00:00;2.30;;;2.10;;
6955;SDS011;50345;51.136;16.886;2023-09-19T00:02:26;4.03;;;2.03;;
6955;SDS011;50345;51.136;16.886;2023-09-19T00:04:52;6.90;;;2.27;;
6955;SDS011;50345;51.136;16.886;2023-09-19T00:07:18;3.40;;;2.00;;
6955;SDS011;50345;51.136;16.886;2023-09-19T00:09:44;7.33;;;2.17;;
6955;SDS011;50345;51.136;16.886;2023-09-19T00:12:09;2.90;;;2.07;;
6955;SDS011;50345;51.136;16.886;2023-09-19T00:14:38;4.47;;;2.03;;
6955;SDS011;50345;51.136;16.886;2023-09-19T00:17:03;5.60;;;2.43;;
6955;SDS011;50345;51.136;16.886;2023-09-19T00:19:36;3.37;;;2.67;;
6955;SDS011;50345;51.136;16.886;2023-09-19T00:22:07;7.87;;;2.13;;
6955;SDS011;50345;51.136;16.886;2023-09-19T00:24:33;2.27;;;1.60;;
6955;SDS011;50345;51.136;16.886;2023-09-19T00:26:59;3.20;;;2.17;;
6955;SDS011;50345;51.136;16.886;2023-09-19T00:29:25;3.00;;;1.80;;
6955;SDS011;50345;51.136;16.886;2023-09-19T00:31:54;3.20;;;2.90;;
6955;SDS011;50345;51.136;16.886;2023-09-19T00:34:22;3.00;;;1.90;;
6955;SDS011;50345;51.136;16.886;2023-09-19T00:36:48;4.30;;;2.40;;
6955;SDS011;50345;51.136;16.886;2023-09-19T00:39:13;3.23;;;1.80;;
6955;SDS011;50345;51.136;16.886;2023-09-19T00:41:39;4.13;;;2.23;;
6955;SDS011;50345;51.136;16.886;2023-09-19T00:44:05;2.90;;;2.37;;
6955;SDS011;50345;51.136;16.886;2023-09-19T00:46:31;1.90;;;1.80;;
6955;SDS011;50345;51.136;16.886;2023-09-19T00:48:57;2.27;;;1.70;;
6955;SDS011;50345;51.136;16.886;2023-09-19T00:51:24;2.30;;;1.83;;
6955;SDS011;50345;51.136;16.886;2023-09-19T00:53:54;4.67;;;1.97;;
6955;SDS011;50345;51.136;16.886;2023-09-19T00:56:19;3.00;;;1.63;;
6955;SDS011;50345;51.136;16.886;2023-09-19T00:58:45;1.83;;;1.70;;
6955;SDS011;50345;51.136;16.886;2023-09-19T01:01:12;3.13;;;2.27;;
6955;SDS011;50345;51.136;16.886;2023-09-19T01:03:40;3.10;;;1.50;;
6955;SDS011;50345;51.136;16.886;2023-09-19T01:06:06;4.50;;;2.10;;
6955;SDS011;50345;51.136;16.886;2023-09-19T01:08:33;2.83;;;1.80;;
6955;SDS011;50345;51.136;16.886;2023-09-19T01:11:01;3.87;;;2.30;;
6955;SDS011;50345;51.136;16.886;2023-09-19T01:16:26;2.07;;;1.87;;
6955;SDS011;50345;51.136;16.886;2023-09-19T01:19:32;2.63;;;2.03;;
6955;SDS011;50345;51.136;16.886;2023-09-19T01:31:01;4.17;;;2.23;;
6955;SDS011;50345;51.136;16.886;2023-09-19T01:33:28;2.53;;;1.90;;
6955;SDS011;50345;51.136;16.886;2023-09-19T01:36:16;2.90;;;1.90;;
6955;SDS011;50345;51.136;16.886;2023-09-19T01:38:41;3.00;;;1.93;;
6955;SDS011;50345;51.136;16.886;2023-09-19T01:41:09;3.70;;;1.60;;
6955;SDS011;50345;51.136;16.886;2023-09-19T01:43:41;3.27;;;1.80;;
6955;SDS011;50345;51.136;16.886;2023-09-19T01:46:14;2.67;;;1.80;;
6955;SDS011;50345;51.136;16.886;2023-09-19T01:54:27;3.37;;;1.97;;
6955;SDS011;50345;51.136;16.886;2023-09-19T01:56:59;6.13;;;2.20;;
6955;SDS011;50345;51.136;16.886;2023-09-19T01:59:33;3.33;;;2.00;;
6955;SDS011;50345;51.136;16.886;2023-09-19T02:02:22;2.67;;;1.60;;
6955;SDS011;50345;51.136;16.886;2023-09-19T02:04:48;4.33;;;2.63;;
6955;SDS011;50345;51.136;16.886;2023-09-19T02:07:15;5.00;;;2.20;;
6955;SDS011;50345;51.136;16.886;2023-09-19T02:09:41;7.53;;;2.33;;
6955;SDS011;50345;51.136;16.886;2023-09-19T02:12:08;2.93;;;2.20;;
6955;SDS011;50345;51.136;16.886;2023-09-19T02:14:34;5.00;;;2.63;;
6955;SDS011;50345;51.136;16.886;2023-09-19T02:17:01;3.70;;;2.00;;
6955;SDS011;50345;51.136;16.886;2023-09-19T02:19:28;2.80;;;1.70;;
6955;SDS011;50345;51.136;16.886;2023-09-19T02:21:55;5.53;;;2.30;;
6955;SDS011;50345;51.136;16.886;2023-09-19T02:24:20;2.90;;;2.17;;
6955;SDS011;50345;51.136;16.886;2023-09-19T02:26:46;4.03;;;1.83;;
6955;SDS011;50345;51.136;16.886;2023-09-19T02:29:12;3.43;;;2.10;;
6955;SDS011;50345;51.136;16.886;2023-09-19T02:31:38;2.20;;;2.00;;
6955;SDS011;50345;51.136;16.886;2023-09-19T02:34:04;2.60;;;2.40;;
6955;SDS011;50345;51.136;16.886;2023-09-19T02:36:31;5.23;;;3.97;;
6955;SDS011;50345;51.136;16.886;2023-09-19T02:38:57;4.17;;;3.67;;
6955;SDS011;50345;51.136;16.886;2023-09-19T02:41:23;10.10;;;3.80;;
6955;SDS011;50345;51.136;16.886;2023-09-19T02:43:48;4.67;;;3.00;;
6955;SDS011;50345;51.136;16.886;2023-09-19T02:46:14;4.57;;;3.50;;
6955;SDS011;50345;51.136;16.886;2023-09-19T02:48:41;10.00;;;3.67;;
6955;SDS011;50345;51.136;16.886;2023-09-19T02:51:07;3.10;;;2.60;;
6955;SDS011;50345;51.136;16.886;2023-09-19T02:53:33;4.33;;;2.70;;
6955;SDS011;50345;51.136;16.886;2023-09-19T02:56:00;2.77;;;2.47;;
6955;SDS011;50345;51.136;16.886;2023-09-19T02:58:26;4.70;;;2.57;;
6955;SDS011;50345;51.136;16.886;2023-09-19T03:00:52;4.93;;;3.23;;
6955;SDS011;50345;51.136;16.886;2023-09-19T03:03:20;5.27;;;2.77;;
6955;SDS011;50345;51.136;16.886;2023-09-19T03:05:46;2.63;;;2.43;;
6955;SDS011;50345;51.136;16.886;2023-09-19T03:08:15;6.57;;;2.43;;
6955;SDS011;50345;51.136;16.886;2023-09-19T03:10:42;3.03;;;2.80;;
6955;SDS011;50345;51.136;16.886;2023-09-19T03:13:08;6.10;;;3.50;;
6955;SDS011;50345;51.136;16.886;2023-09-19T03:15:35;5.50;;;2.90;;
6955;SDS011;50345;51.136;16.886;2023-09-19T03:18:04;4.33;;;2.90;;
6955;SDS011;50345;51.136;16.886;2023-09-19T03:20:30;6.97;;;3.33;;
6955;SDS011;50345;51.136;16.886;2023-09-19T03:22:57;4.07;;;2.43;;
6955;SDS011;50345;51.136;16.886;2023-09-19T03:25:23;4.33;;;3.37;;
6955;SDS011;50345;51.136;16.886;2023-09-19T03:27:49;4.37;;;3.40;;
6955;SDS011;50345;51.136;16.886;2023-09-19T03:30:15;3.83;;;3.10;;
6955;SDS011;50345;51.136;16.886;2023-09-19T03:32:47;5.70;;;2.43;;
6955;SDS011;50345;51.136;16.886;2023-09-19T03:35:15;3.00;;;2.47;;
6955;SDS011;50345;51.136;16.886;2023-09-19T03:37:41;3.10;;;2.70;;
6955;SDS011;50345;51.136;16.886;2023-09-19T03:40:08;5.90;;;2.77;;
6955;SDS011;50345;51.136;16.886;2023-09-19T03:42:37;3.40;;;2.47;;
6955;SDS011;50345;51.136;16.886;2023-09-19T03:45:03;5.60;;;3.33;;
6955;SDS011;50345;51.136;16.886;2023-09-19T03:47:31;6.03;;;3.10;;
6955;SDS011;50345;51.136;16.886;2023-09-19T03:49:58;4.13;;;3.00;;
6955;SDS011;50345;51.136;16.886;2023-09-19T03:52:24;5.47;;;3.10;;
6955;SDS011;50345;51.136;16.886;2023-09-19T03:54:50;4.20;;;2.17;;
6955;SDS011;50345;51.136;16.886;2023-09-19T03:57:16;2.63;;;2.27;;
6955;SDS011;50345;51.136;16.886;2023-09-19T03:59:45;5.83;;;3.03;;
6955;SDS011;50345;51.136;16.886;2023-09-19T04:02:11;3.37;;;2.10;;
6955;SDS011;50345;51.136;16.886;2023-09-19T04:04:47;2.90;;;2.47;;
6955;SDS011;50345;51.136;16.886;2023-09-19T04:07:13;3.33;;;3.03;;
6955;SDS011;50345;51.136;16.886;2023-09-19T04:09:38;2.50;;;2.23;;
6955;SDS011;50345;51.136;16.886;2023-09-19T04:12:04;5.70;;;3.30;;
6955;SDS011;50345;51.136;16.886;2023-09-19T04:14:30;5.17;;;3.33;;
6955;SDS011;50345;51.136;16.886;2023-09-19T04:16:56;3.10;;;2.27;;
6955;SDS011;50345;51.136;16.886;2023-09-19T04:19:22;2.93;;;2.63;;
6955;SDS011;50345;51.136;16.886;2023-09-19T04:21:48;5.10;;;2.60;;
6955;SDS011;50345;51.136;16.886;2023-09-19T04:24:14;3.50;;;2.50;;
6955;SDS011;50345;51.136;16.886;2023-09-19T04:26:40;3.23;;;2.27;;
6955;SDS011;50345;51.136;16.886;2023-09-19T04:29:07;4.77;;;2.90;;
6955;SDS011;50345;51.136;16.886;2023-09-19T04:31:36;4.07;;;2.47;;
6955;SDS011;50345;51.136;16.886;2023-09-19T04:34:03;2.97;;;2.20;;
6955;SDS011;50345;51.136;16.886;2023-09-19T04:36:29;4.23;;;2.93;;
6955;SDS011;50345;51.136;16.886;2023-09-19T04:38:55;3.53;;;2.60;;
6955;SDS011;50345;51.136;16.886;2023-09-19T04:41:21;3.40;;;3.10;;
6955;SDS011;50345;51.136;16.886;2023-09-19T04:43:47;3.90;;;3.00;;
6955;SDS011;50345;51.136;16.886;2023-09-19T04:46:15;4.57;;;2.20;;
6955;SDS011;50345;51.136;16.886;2023-09-19T04:48:42;11.93;;;8.63;;
6955;SDS011;50345;51.136;16.886;2023-09-19T04:51:08;4.27;;;3.00;;
6955;SDS011;50345;51.136;16.886;2023-09-19T04:53:35;5.63;;;3.40;;
6955;SDS011;50345;51.136;16.886;2023-09-19T04:56:02;4.37;;;2.77;;
6955;SDS011;50345;51.136;16.886;2023-09-19T04:58:28;6.60;;;3.30;;
6955;SDS011;50345;51.136;16.886;2023-09-19T05:00:55;7.50;;;3.30;;
6955;SDS011;50345;51.136;16.886;2023-09-19T05:03:21;3.90;;;3.27;;
6955;SDS011;50345;51.136;16.886;2023-09-19T05:05:47;4.40;;;3.00;;
6955;SDS011;50345;51.136;16.886;2023-09-19T05:08:14;5.80;;;3.30;;
6955;SDS011;50345;51.136;16.886;2023-09-19T05:10:40;3.23;;;2.93;;
6955;SDS011;50345;51.136;16.886;2023-09-19T05:13:06;4.43;;;3.00;;
6955;SDS011;50345;51.136;16.886;2023-09-19T05:15:33;5.63;;;3.00;;
6955;SDS011;50345;51.136;16.886;2023-09-19T05:18:00;4.30;;;3.33;;
6955;SDS011;50345;51.136;16.886;2023-09-19T05:20:26;7.13;;;4.20;;
6955;SDS011;50345;51.136;16.886;2023-09-19T05:23:04;8.40;;;7.47;;
6955;SDS011;50345;51.136;16.886;2023-09-19T05:25:32;14.03;;;12.83;;
6955;SDS011;50345;51.136;16.886;2023-09-19T05:28:02;22.97;;;20.20;;
6955;SDS011;50345;51.136;16.886;2023-09-19T05:30:30;19.40;;;17.60;;
6955;SDS011;50345;51.136;16.886;2023-09-19T05:32:56;20.37;;;18.57;;
6955;SDS011;50345;51.136;16.886;2023-09-19T05:35:23;23.53;;;21.30;;
6955;SDS011;50345;51.136;16.886;2023-09-19T05:37:53;28.23;;;25.53;;
6955;SDS011;50345;51.136;16.886;2023-09-19T05:40:20;25.43;;;22.90;;
6955;SDS011;50345;51.136;16.886;2023-09-19T05:42:46;16.43;;;14.67;;
6955;SDS011;50345;51.136;16.886;2023-09-19T05:45:13;7.97;;;7.30;;
6955;SDS011;50345;51.136;16.886;2023-09-19T05:47:42;7.87;;;5.00;;
6955;SDS011;50345;51.136;16.886;2023-09-19T05:50:10;5.93;;;3.67;;
6955;SDS011;50345;51.136;16.886;2023-09-19T05:52:37;4.30;;;3.33;;
6955;SDS011;50345;51.136;16.886;2023-09-19T05:55:06;3.27;;;2.83;;
6955;SDS011;50345;51.136;16.886;2023-09-19T05:57:36;4.97;;;2.97;;
6955;SDS011;50345;51.136;16.886;2023-09-19T06:00:07;5.90;;;2.57;;
6955;SDS011;50345;51.136;16.886;2023-09-19T06:02:38;11.10;;;3.27;;
6955;SDS011;50345;51.136;16.886;2023-09-19T06:05:05;4.93;;;2.30;;
6955;SDS011;50345;51.136;16.886;2023-09-19T06:07:32;3.60;;;2.67;;
6955;SDS011;50345;51.136;16.886;2023-09-19T06:10:04;11.00;;;5.50;;
6955;SDS011;50345;51.136;16.886;2023-09-19T06:12:32;16.83;;;14.53;;
6955;SDS011;50345;51.136;16.886;2023-09-19T06:15:03;14.80;;;9.10;;
6955;SDS011;50345;51.136;16.886;2023-09-19T06:17:30;6.60;;;5.90;;
6955;SDS011;50345;51.136;16.886;2023-09-19T06:19:56;6.70;;;4.10;;
6955;SDS011;50345;51.136;16.886;2023-09-19T06:22:22;8.20;;;4.23;;
6955;SDS011;50345;51.136;16.886;2023-09-19T06:24:49;5.73;;;5.13;;
6955;SDS011;50345;51.136;16.886;2023-09-19T06:27:15;4.57;;;3.93;;
6955;SDS011;50345;51.136;16.886;2023-09-19T06:29:41;7.27;;;4.80;;
6955;SDS011;50345;51.136;16.886;2023-09-19T06:32:10;9.43;;;5.40;;
6955;SDS011;50345;51.136;16.886;2023-09-19T06:34:36;9.67;;;4.00;;
6955;SDS011;50345;51.136;16.886;2023-09-19T06:37:03;3.00;;;2.80;;
6955;SDS011;50345;51.136;16.886;2023-09-19T06:39:31;5.40;;;2.20;;
6955;SDS011;50345;51.136;16.886;2023-09-19T06:41:57;4.27;;;2.20;;
6955;SDS011;50345;51.136;16.886;2023-09-19T06:44:25;4.70;;;3.07;;
6955;SDS011;50345;51.136;16.886;2023-09-19T06:46:51;7.00;;;2.93;;
6955;SDS011;50345;51.136;16.886;2023-09-19T06:49:17;3.73;;;2.63;;
6955;SDS011;50345;51.136;16.886;2023-09-19T06:51:43;3.17;;;2.37;;
6955;SDS011;50345;51.136;16.886;2023-09-19T06:54:09;3.90;;;2.60;;
6955;SDS011;50345;51.136;16.886;2023-09-19T06:56:35;2.90;;;2.50;;
6955;SDS011;50345;51.136;16.886;2023-09-19T06:59:00;2.77;;;2.50;;
6955;SDS011;50345;51.136;16.886;2023-09-19T07:01:27;4.30;;;2.33;;
6955;SDS011;50345;51.136;16.886;2023-09-19T07:03:53;3.73;;;2.40;;
6955;SDS011;50345;51.136;16.886;2023-09-19T07:06:19;2.73;;;2.50;;
6955;SDS011;50345;51.136;16.886;2023-09-19T07:08:45;7.53;;;2.70;;
6955;SDS011;50345;51.136;16.886;2023-09-19T07:11:10;2.47;;;2.27;;
6955;SDS011;50345;51.136;16.886;2023-09-19T07:13:37;2.10;;;2.00;;
6955;SDS011;50345;51.136;16.886;2023-09-19T07:16:03;3.47;;;2.50;;
6955;SDS011;50345;51.136;16.886;2023-09-19T07:18:29;1.93;;;1.83;;
6955;SDS011;50345;51.136;16.886;2023-09-19T07:20:58;2.50;;;1.83;;
6955;SDS011;50345;51.136;16.886;2023-09-19T07:23:29;5.20;;;3.10;;
6955;SDS011;50345;51.136;16.886;2023-09-19T07:26:00;2.83;;;2.17;;
6955;SDS011;50345;51.136;16.886;2023-09-19T07:28:26;2.70;;;2.07;;
6955;SDS011;50345;51.136;16.886;2023-09-19T07:30:53;2.60;;;2.33;;
6955;SDS011;50345;51.136;16.886;2023-09-19T07:33:19;3.00;;;2.07;;
6955;SDS011;50345;51.136;16.886;2023-09-19T07:35:45;4.40;;;2.80;;
6955;SDS011;50345;51.136;16.886;2023-09-19T07:38:11;4.50;;;2.40;;
6955;SDS011;50345;51.136;16.886;2023-09-19T07:40:37;3.80;;;2.00;;
6955;SDS011;50345;51.136;16.886;2023-09-19T07:43:03;2.20;;;2.00;;
6955;SDS011;50345;51.136;16.886;2023-09-19T07:45:30;3.83;;;1.93;;
6955;SDS011;50345;51.136;16.886;2023-09-19T07:47:56;3.50;;;2.40;;
6955;SDS011;50345;51.136;16.886;2023-09-19T07:50:22;1.80;;;1.70;;
6955;SDS011;50345;51.136;16.886;2023-09-19T07:52:48;5.00;;;2.57;;
6955;SDS011;50345;51.136;16.886;2023-09-19T07:55:16;3.83;;;2.50;;
6955;SDS011;50345;51.136;16.886;2023-09-19T07:57:42;3.03;;;2.77;;
6955;SDS011;50345;51.136;16.886;2023-09-19T08:00:08;3.33;;;2.50;;
6955;SDS011;50345;51.136;16.886;2023-09-19T08:02:35;3.17;;;2.87;;
6955;SDS011;50345;51.136;16.886;2023-09-19T08:05:03;4.13;;;3.43;;
6955;SDS011;50345;51.136;16.886;2023-09-19T08:07:31;8.37;;;3.00;;
6955;SDS011;50345;51.136;16.886;2023-09-19T08:10:01;5.63;;;3.70;;
6955;SDS011;50345;51.136;16.886;2023-09-19T08:12:27;5.93;;;3.27;;
6955;SDS011;50345;51.136;16.886;2023-09-19T08:14:52;3.60;;;3.30;;
6955;SDS011;50345;51.136;16.886;2023-09-19T08:17:18;6.27;;;3.17;;
6955;SDS011;50345;51.136;16.886;2023-09-19T08:19:45;3.93;;;2.70;;
6955;SDS011;50345;51.136;16.886;2023-09-19T08:22:11;3.50;;;3.20;;
6955;SDS011;50345;51.136;16.886;2023-09-19T08:24:37;3.97;;;3.10;;
6955;SDS011;50345;51.136;16.886;2023-09-19T08:27:03;3.00;;;2.77;;
6955;SDS011;50345;51.136;16.886;2023-09-19T08:29:30;3.83;;;3.20;;
6955;SDS011;50345;51.136;16.886;2023-09-19T08:31:56;3.17;;;2.70;;
6955;SDS011;50345;51.136;16.886;2023-09-19T08:34:23;3.13;;;2.83;;
6955;SDS011;50345;51.136;16.886;2023-09-19T08:36:52;2.87;;;2.43;;
6955;SDS011;50345;51.136;16.886;2023-09-19T08:39:21;2.57;;;2.37;;
6955;SDS011;50345;51.136;16.886;2023-09-19T08:41:47;3.43;;;3.00;;
6955;SDS011;50345;51.136;16.886;2023-09-19T08:44:13;3.33;;;2.93;;
6955;SDS011;50345;51.136;16.886;2023-09-19T08:46:40;2.10;;;2.00;;
6955;SDS011;50345;51.136;16.886;2023-09-19T08:52:10;2.83;;;2.60;;
6955;SDS011;50345;51.136;16.886;2023-09-19T08:54:45;3.20;;;2.07;;
6955;SDS011;50345;51.136;16.886;2023-09-19T08:57:13;2.77;;;2.57;;
6955;SDS011;50345;51.136;16.886;2023-09-19T08:59:46;2.57;;;2.37;;
6955;SDS011;50345;51.136;16.886;2023-09-19T09:02:16;3.40;;;2.20;;
6955;SDS011;50345;51.136;16.886;2023-09-19T09:04:44;4.63;;;2.07;;
6955;SDS011;50345;51.136;16.886;2023-09-19T09:07:11;4.67;;;2.77;;
6955;SDS011;50345;51.136;16.886;2023-09-19T09:09:41;6.13;;;2.67;;
6955;SDS011;50345;51.136;16.886;2023-09-19T09:12:12;8.27;;;3.50;;
6955;SDS011;50345;51.136;16.886;2023-09-19T09:14:45;2.60;;;2.33;;
6955;SDS011;50345;51.136;16.886;2023-09-19T09:17:15;8.70;;;2.60;;
6955;SDS011;50345;51.136;16.886;2023-09-19T09:19:45;2.40;;;2.00;;
6955;SDS011;50345;51.136;16.886;2023-09-19T09:22:12;3.00;;;2.37;;
6955;SDS011;50345;51.136;16.886;2023-09-19T09:24:50;6.10;;;2.67;;
6955;SDS011;50345;51.136;16.886;2023-09-19T09:27:22;7.67;;;2.17;;
6955;SDS011;50345;51.136;16.886;2023-09-19T09:29:49;3.10;;;2.43;;
6955;SDS011;50345;51.136;16.886;2023-09-19T09:32:34;4.30;;;2.83;;
6955;SDS011;50345;51.136;16.886;2023-09-19T09:35:02;3.83;;;2.70;;
6955;SDS011;50345;51.136;16.886;2023-09-19T09:37:34;2.60;;;2.23;;
6955;SDS011;50345;51.136;16.886;2023-09-19T09:40:03;4.83;;;2.37;;
6955;SDS011;50345;51.136;16.886;2023-09-19T09:42:56;2.73;;;2.53;;
6955;SDS011;50345;51.136;16.886;2023-09-19T09:45:24;2.53;;;2.20;;
6955;SDS011;50345;51.136;16.886;2023-09-19T09:47:58;2.20;;;1.57;;
6955;SDS011;50345;51.136;16.886;2023-09-19T09:50:29;3.97;;;1.73;;
6955;SDS011;50345;51.136;16.886;2023-09-19T09:53:31;3.10;;;2.30;;
6955;SDS011;50345;51.136;16.886;2023-09-19T09:56:06;2.43;;;2.00;;
6955;SDS011;50345;51.136;16.886;2023-09-19T09:58:37;2.83;;;1.90;;
6955;SDS011;50345;51.136;16.886;2023-09-19T10:01:14;2.50;;;1.87;;
6955;SDS011;50345;51.136;16.886;2023-09-19T10:03:40;8.13;;;2.40;;
6955;SDS011;50345;51.136;16.886;2023-09-19T10:06:13;3.00;;;2.23;;
6955;SDS011;50345;51.136;16.886;2023-09-19T10:09:01;1.80;;;1.53;;
6955;SDS011;50345;51.136;16.886;2023-09-19T10:11:31;5.53;;;2.37;;
6955;SDS011;50345;51.136;16.886;2023-09-19T10:13:58;2.70;;;2.30;;
6955;SDS011;50345;51.136;16.886;2023-09-19T10:16:29;2.00;;;1.73;;
6955;SDS011;50345;51.136;16.886;2023-09-19T10:18:57;2.77;;;1.87;;
6955;SDS011;50345;51.136;16.886;2023-09-19T10:21:27;2.33;;;1.80;;
6955;SDS011;50345;51.136;16.886;2023-09-19T10:23:55;5.93;;;1.57;;
6955;SDS011;50345;51.136;16.886;2023-09-19T10:26:24;1.90;;;1.80;;
6955;SDS011;50345;51.136;16.886;2023-09-19T10:28:56;2.50;;;1.63;;
6955;SDS011;50345;51.136;16.886;2023-09-19T10:31:22;1.93;;;1.50;;
6955;SDS011;50345;51.136;16.886;2023-09-19T10:33:50;1.93;;;1.70;;
6955;SDS011;50345;51.136;16.886;2023-09-19T10:36:18;3.53;;;2.20;;
6955;SDS011;50345;51.136;16.886;2023-09-19T10:38:44;5.37;;;1.20;;
6955;SDS011;50345;51.136;16.886;2023-09-19T10:41:12;2.77;;;2.57;;
6955;SDS011;50345;51.136;16.886;2023-09-19T10:43:41;2.03;;;1.57;;
6955;SDS011;50345;51.136;16.886;2023-09-19T10:46:11;6.93;;;2.37;;
6955;SDS011;50345;51.136;16.886;2023-09-19T10:48:38;2.00;;;1.57;;
6955;SDS011;50345;51.136;16.886;2023-09-19T10:51:12;2.50;;;1.83;;
6955;SDS011;50345;51.136;16.886;2023-09-19T10:53:48;4.80;;;1.40;;
6955;SDS011;50345;51.136;16.886;2023-09-19T10:56:17;1.50;;;1.40;;
6955;SDS011;50345;51.136;16.886;2023-09-19T10:58:46;1.90;;;1.57;;
6955;SDS011;50345;51.136;16.886;2023-09-19T11:01:14;1.83;;;1.73;;
6955;SDS011;50345;51.136;16.886;2023-09-19T11:03:41;2.27;;;1.70;;
6955;SDS011;50345;51.136;16.886;2023-09-19T11:06:19;2.60;;;1.60;;
6955;SDS011;50345;51.136;16.886;2023-09-19T11:30:37;1.37;;;1.27;;
6955;SDS011;50345;51.136;16.886;2023-09-19T11:33:19;1.53;;;1.43;;
6955;SDS011;50345;51.136;16.886;2023-09-19T11:36:06;2.20;;;1.27;;
6955;SDS011;50345;51.136;16.886;2023-09-19T11:41:55;1.47;;;1.30;;
6955;SDS011;50345;51.136;16.886;2023-09-19T11:49:15;1.70;;;1.60;;
6955;SDS011;50345;51.136;16.886;2023-09-19T11:51:46;2.10;;;1.53;;
6955;SDS011;50345;51.136;16.886;2023-09-19T11:54:14;1.90;;;1.80;;
6955;SDS011;50345;51.136;16.886;2023-09-19T11:56:47;2.67;;;1.70;;
6955;SDS011;50345;51.136;16.886;2023-09-19T11:59:19;2.43;;;1.50;;
6955;SDS011;50345;51.136;16.886;2023-09-19T12:01:54;1.67;;;1.57;;
6955;SDS011;50345;51.136;16.886;2023-09-19T12:04:44;5.73;;;1.60;;
6955;SDS011;50345;51.136;16.886;2023-09-19T12:07:14;2.07;;;1.30;;
6955;SDS011;50345;51.136;16.886;2023-09-19T12:09:47;1.40;;;1.30;;
6955;SDS011;50345;51.136;16.886;2023-09-19T12:12:20;1.80;;;1.70;;
6955;SDS011;50345;51.136;16.886;2023-09-19T12:14:50;2.60;;;1.50;;
6955;SDS011;50345;51.136;16.886;2023-09-19T12:17:17;2.40;;;1.70;;
6955;SDS011;50345;51.136;16.886;2023-09-19T12:19:52;29.07;;;2.83;;
6955;SDS011;50345;51.136;16.886;2023-09-19T12:22:19;1.63;;;1.27;;
6955;SDS011;50345;51.136;16.886;2023-09-19T12:24:45;2.13;;;1.23;;
6955;SDS011;50345;51.136;16.886;2023-09-19T12:27:12;1.53;;;1.43;;
6955;SDS011;50345;51.136;16.886;2023-09-19T12:29:48;1.67;;;1.40;;
6955;SDS011;50345;51.136;16.886;2023-09-19T12:32:14;1.70;;;1.60;;
6955;SDS011;50345;51.136;16.886;2023-09-19T12:34:42;1.90;;;1.80;;
6955;SDS011;50345;51.136;16.886;2023-09-19T12:37:12;1.70;;;1.50;;
6955;SDS011;50345;51.136;16.886;2023-09-19T12:39:44;1.47;;;1.37;;
6955;SDS011;50345;51.136;16.886;2023-09-19T12:42:14;2.00;;;1.80;;
6955;SDS011;50345;51.136;16.886;2023-09-19T12:44:41;2.00;;;1.50;;
6955;SDS011;50345;51.136;16.886;2023-09-19T12:47:17;1.83;;;1.70;;
6955;SDS011;50345;51.136;16.886;2023-09-19T12:52:50;1.93;;;1.83;;
6955;SDS011;50345;51.136;16.886;2023-09-19T12:55:20;2.27;;;2.07;;
6955;SDS011;50345;51.136;16.886;2023-09-19T12:57:57;1.47;;;1.20;;
6955;SDS011;50345;51.136;16.886;2023-09-19T13:00:42;1.73;;;1.33;;
6955;SDS011;50345;51.136;16.886;2023-09-19T13:03:45;2.30;;;2.10;;
6955;SDS011;50345;51.136;16.886;2023-09-19T13:06:05;4.50;;;1.13;;
6955;SDS011;50345;51.136;16.886;2023-09-19T13:08:34;2.30;;;1.53;;
6955;SDS011;50345;51.136;16.886;2023-09-19T13:11:07;1.60;;;1.50;;
6955;SDS011;50345;51.136;16.886;2023-09-19T13:13:41;1.63;;;1.40;;
6955;SDS011;50345;51.136;16.886;2023-09-19T13:16:09;2.00;;;1.67;;
6955;SDS011;50345;51.136;16.886;2023-09-19T13:21:16;2.73;;;1.30;;
6955;SDS011;50345;51.136;16.886;2023-09-19T13:23:53;3.07;;;1.87;;
6955;SDS011;50345;51.136;16.886;2023-09-19T13:26:24;2.40;;;1.57;;
6955;SDS011;50345;51.136;16.886;2023-09-19T13:28:50;2.17;;;1.33;;
6955;SDS011;50345;51.136;16.886;2023-09-19T13:31:16;1.53;;;1.43;;
6955;SDS011;50345;51.136;16.886;2023-09-19T13:33:43;1.63;;;1.53;;
6955;SDS011;50345;51.136;16.886;2023-09-19T13:36:12;1.97;;;1.63;;
6955;SDS011;50345;51.136;16.886;2023-09-19T13:38:39;1.57;;;1.47;;
6955;SDS011;50345;51.136;16.886;2023-09-19T13:41:07;3.00;;;1.73;;
6955;SDS011;50345;51.136;16.886;2023-09-19T13:43:34;1.20;;;1.10;;
6955;SDS011;50345;51.136;16.886;2023-09-19T13:46:00;3.10;;;1.23;;
6955;SDS011;50345;51.136;16.886;2023-09-19T13:48:27;1.63;;;1.20;;
6955;SDS011;50345;51.136;16.886;2023-09-19T13:50:54;2.10;;;1.90;;
6955;SDS011;50345;51.136;16.886;2023-09-19T13:53:20;1.77;;;1.67;;
6955;SDS011;50345;51.136;16.886;2023-09-19T13:55:47;2.33;;;1.67;;
6955;SDS011;50345;51.136;16.886;2023-09-19T13:58:16;2.87;;;1.80;;
6955;SDS011;50345;51.136;16.886;2023-09-19T14:00:42;1.97;;;1.70;;
6955;SDS011;50345;51.136;16.886;2023-09-19T14:03:08;2.17;;;1.40;;
6955;SDS011;50345;51.136;16.886;2023-09-19T14:05:35;2.50;;;1.50;;
6955;SDS011;50345;51.136;16.886;2023-09-19T14:08:01;1.90;;;1.30;;
6955;SDS011;50345;51.136;16.886;2023-09-19T14:10:28;1.73;;;1.60;;
6955;SDS011;50345;51.136;16.886;2023-09-19T14:12:56;1.40;;;1.30;;
6955;SDS011;50345;51.136;16.886;2023-09-19T14:15:24;2.07;;;1.30;;
6955;SDS011;50345;51.136;16.886;2023-09-19T14:17:54;1.87;;;1.50;;
6955;SDS011;50345;51.136;16.886;2023-09-19T14:20:21;1.67;;;1.57;;
6955;SDS011;50345;51.136;16.886;2023-09-19T14:22:48;1.40;;;1.27;;
6955;SDS011;50345;51.136;16.886;2023-09-19T14:25:13;2.03;;;1.27;;
6955;SDS011;50345;51.136;16.886;2023-09-19T14:27:39;1.70;;;1.60;;
6955;SDS011;50345;51.136;16.886;2023-09-19T14:30:06;2.37;;;1.50;;
6955;SDS011;50345;51.136;16.886;2023-09-19T14:32:32;1.63;;;1.30;;
6955;SDS011;50345;51.136;16.886;2023-09-19T14:34:58;3.20;;;1.60;;
6955;SDS011;50345;51.136;16.886;2023-09-19T14:37:24;1.43;;;1.30;;
6955;SDS011;50345;51.136;16.886;2023-09-19T14:39:49;2.07;;;1.60;;
6955;SDS011;50345;51.136;16.886;2023-09-19T14:42:15;1.70;;;1.53;;
6955;SDS011;50345;51.136;16.886;2023-09-19T14:44:43;1.50;;;1.30;;
6955;SDS011;50345;51.136;16.886;2023-09-19T14:47:09;1.50;;;1.40;;
6955;SDS011;50345;51.136;16.886;2023-09-19T14:49:38;3.47;;;1.43;;
6955;SDS011;50345;51.136;16.886;2023-09-19T14:52:05;2.30;;;1.40;;
6955;SDS011;50345;51.136;16.886;2023-09-19T14:54:31;2.30;;;1.40;;
6955;SDS011;50345;51.136;16.886;2023-09-19T14:56:56;1.67;;;1.40;;
6955;SDS011;50345;51.136;16.886;2023-09-19T14:59:32;2.63;;;1.90;;
6955;SDS011;50345;51.136;16.886;2023-09-19T15:01:59;10.40;;;2.00;;
6955;SDS011;50345;51.136;16.886;2023-09-19T15:04:25;7.60;;;2.50;;
6955;SDS011;50345;51.136;16.886;2023-09-19T15:06:52;11.03;;;2.43;;
6955;SDS011;50345;51.136;16.886;2023-09-19T15:09:23;2.93;;;1.37;;
6955;SDS011;50345;51.136;16.886;2023-09-19T15:11:51;1.40;;;1.30;;
6955;SDS011;50345;51.136;16.886;2023-09-19T15:14:17;2.07;;;1.87;;
6955;SDS011;50345;51.136;16.886;2023-09-19T15:16:43;2.03;;;1.77;;
6955;SDS011;50345;51.136;16.886;2023-09-19T15:19:08;5.50;;;1.80;;
6955;SDS011;50345;51.136;16.886;2023-09-19T15:21:35;2.80;;;1.50;;
6955;SDS011;50345;51.136;16.886;2023-09-19T15:24:02;1.70;;;1.60;;
6955;SDS011;50345;51.136;16.886;2023-09-19T15:26:28;1.90;;;1.40;;
6955;SDS011;50345;51.136;16.886;2023-09-19T15:28:55;1.20;;;1.10;;
6955;SDS011;50345;51.136;16.886;2023-09-19T15:31:21;1.93;;;1.50;;
6955;SDS011;50345;51.136;16.886;2023-09-19T15:33:47;3.23;;;1.40;;
6955;SDS011;50345;51.136;16.886;2023-09-19T15:36:13;1.60;;;1.50;;
6955;SDS011;50345;51.136;16.886;2023-09-19T15:41:24;3.90;;;1.70;;
6955;SDS011;50345;51.136;16.886;2023-09-19T15:43:51;1.77;;;1.20;;
6955;SDS011;50345;51.136;16.886;2023-09-19T15:46:17;6.00;;;1.50;;
6955;SDS011;50345;51.136;16.886;2023-09-19T15:48:44;2.57;;;1.40;;
6955;SDS011;50345;51.136;16.886;2023-09-19T15:51:10;1.30;;;1.20;;